New Rochelle, New York
Current Conditions -  °F | °C
As of 10:51 PM on Saturday 25 Oct 2014 (Local Time) from KLGA Reporting Station
Few Clouds Few Clouds  
Wind Chill: 63°   Ceiling: Unl
Heat Index: 63°   Visibility: 10mi
Dew Point: 44°   Wind: 17mph
Humidity: 50%   Direction: 240°WSW
Pressure: 29.58"   Gusts: 28mph
Location:  40.92°N, 73.79°W
Report Text: KLGA 260251Z 24015G24KT 10SM FEW250 17/07 A2958 RMK AO2 SLP016 T01720067 56019
Loading
Personal Weather Stations






























Interactive Weather Map
Tropical Storm Tracking
New forecast layout! Learn more

10-Day Weather Forecast

Advertisements
Track Severe Weather on mobile